sensor_id;sensor_type;location;lat;lon;timestamp;temperature;humidity
61201;DHT22;47065;52.898;6.992;2022-12-18T00:01:05;-3.40;99.90
61201;DHT22;47065;52.898;6.992;2022-12-18T00:03:37;-3.40;99.90
61201;DHT22;47065;52.898;6.992;2022-12-18T00:06:03;-3.40;99.90
61201;DHT22;47065;52.898;6.992;2022-12-18T00:08:28;-3.50;99.90
61201;DHT22;47065;52.898;6.992;2022-12-18T00:10:54;-3.40;99.90
61201;DHT22;47065;52.898;6.992;2022-12-18T00:13:20;-3.40;99.90
61201;DHT22;47065;52.898;6.992;2022-12-18T00:15:46;-3.50;99.90
61201;DHT22;47065;52.898;6.992;2022-12-18T00:18:11;-3.50;99.90
61201;DHT22;47065;52.898;6.992;2022-12-18T00:20:39;-3.40;99.90
61201;DHT22;47065;52.898;6.992;2022-12-18T00:23:05;-3.40;99.90
61201;DHT22;47065;52.898;6.992;2022-12-18T00:25:35;-3.50;99.90
61201;DHT22;47065;52.898;6.992;2022-12-18T00:28:02;-3.40;99.90
61201;DHT22;47065;52.898;6.992;2022-12-18T00:30:27;-3.50;99.90
61201;DHT22;47065;52.898;6.992;2022-12-18T00:32:53;-3.50;99.90
61201;DHT22;47065;52.898;6.992;2022-12-18T00:35:19;-3.50;99.90
61201;DHT22;47065;52.898;6.992;2022-12-18T00:37:44;-3.50;99.90
61201;DHT22;47065;52.898;6.992;2022-12-18T00:40:11;-3.50;99.90
61201;DHT22;47065;52.898;6.992;2022-12-18T00:42:36;-3.60;99.90
61201;DHT22;47065;52.898;6.992;2022-12-18T00:45:29;-3.60;99.90
61201;DHT22;47065;52.898;6.992;2022-12-18T00:47:55;-3.70;99.90
61201;DHT22;47065;52.898;6.992;2022-12-18T00:50:22;-3.70;99.90
61201;DHT22;47065;52.898;6.992;2022-12-18T00:52:48;-3.80;99.90
61201;DHT22;47065;52.898;6.992;2022-12-18T00:55:14;-3.80;99.90
61201;DHT22;47065;52.898;6.992;2022-12-18T00:57:40;-3.80;99.90
61201;DHT22;47065;52.898;6.992;2022-12-18T01:00:07;-3.90;99.90
61201;DHT22;47065;52.898;6.992;2022-12-18T01:02:34;-3.90;99.90
61201;DHT22;47065;52.898;6.992;2022-12-18T01:05:00;-3.90;99.90
61201;DHT22;47065;52.898;6.992;2022-12-18T01:07:26;-4.00;99.90
61201;DHT22;47065;52.898;6.992;2022-12-18T01:09:52;-4.00;99.90
61201;DHT22;47065;52.898;6.992;2022-12-18T01:12:17;-4.10;99.90
61201;DHT22;47065;52.898;6.992;2022-12-18T01:14:43;-4.10;99.90
61201;DHT22;47065;52.898;6.992;2022-12-18T01:17:09;-4.10;99.90
61201;DHT22;47065;52.898;6.992;2022-12-18T01:19:34;-4.10;99.90
61201;DHT22;47065;52.898;6.992;2022-12-18T01:22:00;-4.20;99.90
61201;DHT22;47065;52.898;6.992;2022-12-18T01:24:25;-4.20;99.90
61201;DHT22;47065;52.898;6.992;2022-12-18T01:26:51;-4.20;99.90
61201;DHT22;47065;52.898;6.992;2022-12-18T01:29:17;-4.20;99.90
61201;DHT22;47065;52.898;6.992;2022-12-18T01:31:54;-4.30;99.90
61201;DHT22;47065;52.898;6.992;2022-12-18T01:34:19;-4.30;99.90
61201;DHT22;47065;52.898;6.992;2022-12-18T01:36:45;-4.30;99.90
61201;DHT22;47065;52.898;6.992;2022-12-18T01:39:12;-4.30;99.90
61201;DHT22;47065;52.898;6.992;2022-12-18T01:41:38;-4.30;99.90
61201;DHT22;47065;52.898;6.992;2022-12-18T01:45:01;-4.40;99.90
61201;DHT22;47065;52.898;6.992;2022-12-18T01:47:46;-4.40;99.90
61201;DHT22;47065;52.898;6.992;2022-12-18T01:52:46;-4.40;99.90
61201;DHT22;47065;52.898;6.992;2022-12-18T01:55:14;-4.50;99.90
61201;DHT22;47065;52.898;6.992;2022-12-18T01:57:44;-4.50;99.90
61201;DHT22;47065;52.898;6.992;2022-12-18T02:00:18;-4.50;99.90
61201;DHT22;47065;52.898;6.992;2022-12-18T02:02:46;-4.60;99.90
61201;DHT22;47065;52.898;6.992;2022-12-18T02:05:17;-4.60;99.90
61201;DHT22;47065;52.898;6.992;2022-12-18T02:10:27;-4.80;99.90
61201;DHT22;47065;52.898;6.992;2022-12-18T02:15:49;-4.90;99.90
61201;DHT22;47065;52.898;6.992;2022-12-18T02:18:23;-4.90;99.90
61201;DHT22;47065;52.898;6.992;2022-12-18T02:21:27;-5.00;99.90
61201;DHT22;47065;52.898;6.992;2022-12-18T02:24:11;-5.00;99.90
61201;DHT22;47065;52.898;6.992;2022-12-18T02:26:51;-5.10;99.90
61201;DHT22;47065;52.898;6.992;2022-12-18T02:32:00;-5.30;99.90
61201;DHT22;47065;52.898;6.992;2022-12-18T02:34:29;-5.30;99.90
61201;DHT22;47065;52.898;6.992;2022-12-18T02:36:57;-5.40;99.90
61201;DHT22;47065;52.898;6.992;2022-12-18T02:39:25;-5.40;99.90
61201;DHT22;47065;52.898;6.992;2022-12-18T02:41:52;-5.50;99.90
61201;DHT22;47065;52.898;6.992;2022-12-18T02:44:17;-5.50;99.90
61201;DHT22;47065;52.898;6.992;2022-12-18T02:46:53;-5.60;99.90
61201;DHT22;47065;52.898;6.992;2022-12-18T02:53:17;-5.60;99.90
61201;DHT22;47065;52.898;6.992;2022-12-18T02:56:50;-5.70;99.90
61201;DHT22;47065;52.898;6.992;2022-12-18T03:01:36;-5.70;99.90
61201;DHT22;47065;52.898;6.992;2022-12-18T03:04:19;-5.80;99.90
61201;DHT22;47065;52.898;6.992;2022-12-18T03:06:49;-5.80;99.90
61201;DHT22;47065;52.898;6.992;2022-12-18T03:09:24;-5.80;99.90
61201;DHT22;47065;52.898;6.992;2022-12-18T03:11:56;-5.80;99.90
61201;DHT22;47065;52.898;6.992;2022-12-18T03:14:43;-5.80;99.90
61201;DHT22;47065;52.898;6.992;2022-12-18T03:17:15;-5.90;99.90
61201;DHT22;47065;52.898;6.992;2022-12-18T03:19:44;-5.90;99.90
61201;DHT22;47065;52.898;6.992;2022-12-18T03:22:12;-5.90;99.90
61201;DHT22;47065;52.898;6.992;2022-12-18T03:24:38;-5.90;99.90
61201;DHT22;47065;52.898;6.992;2022-12-18T03:27:08;-5.90;99.90
61201;DHT22;47065;52.898;6.992;2022-12-18T03:29:40;-5.90;99.90
61201;DHT22;47065;52.898;6.992;2022-12-18T03:32:15;-5.90;99.90
61201;DHT22;47065;52.898;6.992;2022-12-18T03:34:43;-5.90;99.90
61201;DHT22;47065;52.898;6.992;2022-12-18T03:37:10;-5.90;99.90
61201;DHT22;47065;52.898;6.992;2022-12-18T03:39:35;-5.90;99.90
61201;DHT22;47065;52.898;6.992;2022-12-18T03:42:37;-5.90;99.90
61201;DHT22;47065;52.898;6.992;2022-12-18T03:50:48;-5.90;99.90
61201;DHT22;47065;52.898;6.992;2022-12-18T03:55:52;-5.90;99.90
61201;DHT22;47065;52.898;6.992;2022-12-18T03:58:21;-5.90;99.90
61201;DHT22;47065;52.898;6.992;2022-12-18T04:00:49;-5.90;99.90
61201;DHT22;47065;52.898;6.992;2022-12-18T04:03:18;-5.90;99.90
61201;DHT22;47065;52.898;6.992;2022-12-18T04:05:45;-5.90;99.90
61201;DHT22;47065;52.898;6.992;2022-12-18T04:08:13;-5.90;99.90
61201;DHT22;47065;52.898;6.992;2022-12-18T04:10:39;-6.00;99.90
61201;DHT22;47065;52.898;6.992;2022-12-18T04:13:05;-6.00;99.90
61201;DHT22;47065;52.898;6.992;2022-12-18T04:15:33;-6.00;99.90
61201;DHT22;47065;52.898;6.992;2022-12-18T04:18:00;-6.00;99.90
61201;DHT22;47065;52.898;6.992;2022-12-18T04:20:25;-6.00;99.90
61201;DHT22;47065;52.898;6.992;2022-12-18T04:22:51;-6.00;99.90
61201;DHT22;47065;52.898;6.992;2022-12-18T04:25:16;-6.10;99.90
61201;DHT22;47065;52.898;6.992;2022-12-18T04:27:42;-6.10;99.90
61201;DHT22;47065;52.898;6.992;2022-12-18T04:30:08;-6.00;99.90
61201;DHT22;47065;52.898;6.992;2022-12-18T04:32:34;-6.10;99.90
61201;DHT22;47065;52.898;6.992;2022-12-18T04:35:00;-6.10;99.90
61201;DHT22;47065;52.898;6.992;2022-12-18T04:37:26;-6.10;99.90
61201;DHT22;47065;52.898;6.992;2022-12-18T04:39:51;-6.10;99.90
61201;DHT22;47065;52.898;6.992;2022-12-18T04:42:17;-6.20;99.90
61201;DHT22;47065;52.898;6.992;2022-12-18T04:44:43;-6.20;99.90
61201;DHT22;47065;52.898;6.992;2022-12-18T04:47:08;-6.20;99.90
61201;DHT22;47065;52.898;6.992;2022-12-18T04:49:34;-6.20;99.90
61201;DHT22;47065;52.898;6.992;2022-12-18T04:51:59;-6.20;99.90
61201;DHT22;47065;52.898;6.992;2022-12-18T04:54:25;-6.20;99.90
61201;DHT22;47065;52.898;6.992;2022-12-18T04:56:51;-6.20;99.90
61201;DHT22;47065;52.898;6.992;2022-12-18T04:59:16;-6.30;99.90
61201;DHT22;47065;52.898;6.992;2022-12-18T05:01:42;-6.30;99.90
61201;DHT22;47065;52.898;6.992;2022-12-18T05:04:08;-6.30;99.90
61201;DHT22;47065;52.898;6.992;2022-12-18T05:06:33;-6.30;99.90
61201;DHT22;47065;52.898;6.992;2022-12-18T05:08:59;-6.40;99.90
61201;DHT22;47065;52.898;6.992;2022-12-18T05:11:25;-6.30;99.90
61201;DHT22;47065;52.898;6.992;2022-12-18T05:13:50;-6.40;99.90
61201;DHT22;47065;52.898;6.992;2022-12-18T05:16:16;-6.40;99.90
61201;DHT22;47065;52.898;6.992;2022-12-18T05:18:41;-6.40;99.90
61201;DHT22;47065;52.898;6.992;2022-12-18T05:21:07;-6.40;99.90
61201;DHT22;47065;52.898;6.992;2022-12-18T05:23:36;-6.40;99.90
61201;DHT22;47065;52.898;6.992;2022-12-18T05:26:04;-6.40;99.90
61201;DHT22;47065;52.898;6.992;2022-12-18T05:28:31;-6.40;99.90
61201;DHT22;47065;52.898;6.992;2022-12-18T05:30:59;-6.40;99.90
61201;DHT22;47065;52.898;6.992;2022-12-18T05:33:27;-6.50;99.90
61201;DHT22;47065;52.898;6.992;2022-12-18T05:35:57;-6.50;99.90
61201;DHT22;47065;52.898;6.992;2022-12-18T05:38:24;-6.50;99.90
61201;DHT22;47065;52.898;6.992;2022-12-18T05:40:51;-6.50;99.90
61201;DHT22;47065;52.898;6.992;2022-12-18T05:43:18;-6.50;99.90
61201;DHT22;47065;52.898;6.992;2022-12-18T05:45:44;-6.50;99.90
61201;DHT22;47065;52.898;6.992;2022-12-18T05:48:14;-6.50;99.90
61201;DHT22;47065;52.898;6.992;2022-12-18T05:50:42;-6.60;99.90
61201;DHT22;47065;52.898;6.992;2022-12-18T05:53:08;-6.60;99.90
61201;DHT22;47065;52.898;6.992;2022-12-18T05:55:39;-6.60;99.90
61201;DHT22;47065;52.898;6.992;2022-12-18T05:58:07;-6.60;99.90
61201;DHT22;47065;52.898;6.992;2022-12-18T06:00:35;-6.60;99.90
61201;DHT22;47065;52.898;6.992;2022-12-18T06:03:01;-6.70;99.90
61201;DHT22;47065;52.898;6.992;2022-12-18T06:05:27;-6.70;99.90
61201;DHT22;47065;52.898;6.992;2022-12-18T06:07:53;-6.70;99.90
61201;DHT22;47065;52.898;6.992;2022-12-18T06:10:18;-6.70;99.90
61201;DHT22;47065;52.898;6.992;2022-12-18T06:12:44;-6.70;99.90
61201;DHT22;47065;52.898;6.992;2022-12-18T06:15:10;-6.80;99.90
61201;DHT22;47065;52.898;6.992;2022-12-18T06:17:36;-6.70;99.90
61201;DHT22;47065;52.898;6.992;2022-12-18T06:20:03;-6.80;99.90
61201;DHT22;47065;52.898;6.992;2022-12-18T06:22:31;-6.80;99.90
61201;DHT22;47065;52.898;6.992;2022-12-18T06:24:57;-6.80;99.90
61201;DHT22;47065;52.898;6.992;2022-12-18T06:27:22;-6.90;99.90
61201;DHT22;47065;52.898;6.992;2022-12-18T06:29:48;-6.80;99.90
61201;DHT22;47065;52.898;6.992;2022-12-18T06:32:14;-6.90;99.90
61201;DHT22;47065;52.898;6.992;2022-12-18T06:34:39;-6.90;99.90
61201;DHT22;47065;52.898;6.992;2022-12-18T06:37:05;-6.90;99.90
61201;DHT22;47065;52.898;6.992;2022-12-18T06:39:31;-6.90;99.90
61201;DHT22;47065;52.898;6.992;2022-12-18T06:41:56;-6.90;99.90
61201;DHT22;47065;52.898;6.992;2022-12-18T06:44:22;-7.00;99.90
61201;DHT22;47065;52.898;6.992;2022-12-18T06:46:47;-7.10;99.90
61201;DHT22;47065;52.898;6.992;2022-12-18T06:49:13;-7.20;99.90
61201;DHT22;47065;52.898;6.992;2022-12-18T06:51:39;-7.40;99.90
61201;DHT22;47065;52.898;6.992;2022-12-18T06:54:04;-7.50;99.90
61201;DHT22;47065;52.898;6.992;2022-12-18T06:56:30;-7.70;99.90
61201;DHT22;47065;52.898;6.992;2022-12-18T06:58:56;-7.80;99.90
61201;DHT22;47065;52.898;6.992;2022-12-18T07:01:22;-7.80;99.90
61201;DHT22;47065;52.898;6.992;2022-12-18T07:03:55;-7.90;99.90
61201;DHT22;47065;52.898;6.992;2022-12-18T07:06:23;-7.90;99.90
61201;DHT22;47065;52.898;6.992;2022-12-18T07:08:49;-7.90;99.90
61201;DHT22;47065;52.898;6.992;2022-12-18T07:11:16;-7.90;99.90
61201;DHT22;47065;52.898;6.992;2022-12-18T07:13:42;-7.90;99.90
61201;DHT22;47065;52.898;6.992;2022-12-18T07:16:21;-7.90;99.90
61201;DHT22;47065;52.898;6.992;2022-12-18T07:18:47;-7.90;99.90
61201;DHT22;47065;52.898;6.992;2022-12-18T07:21:15;-7.90;99.90
61201;DHT22;47065;52.898;6.992;2022-12-18T07:23:41;-7.90;99.90
61201;DHT22;47065;52.898;6.992;2022-12-18T07:26:12;-7.80;99.90
61201;DHT22;47065;52.898;6.992;2022-12-18T07:28:39;-7.80;99.90
61201;DHT22;47065;52.898;6.992;2022-12-18T07:31:06;-7.70;99.90
61201;DHT22;47065;52.898;6.992;2022-12-18T07:33:33;-7.50;99.90
61201;DHT22;47065;52.898;6.992;2022-12-18T07:36:03;-7.40;99.90
61201;DHT22;47065;52.898;6.992;2022-12-18T07:38:30;-7.40;99.90
61201;DHT22;47065;52.898;6.992;2022-12-18T07:41:04;-7.30;99.90
61201;DHT22;47065;52.898;6.992;2022-12-18T07:43:29;-7.20;99.90
61201;DHT22;47065;52.898;6.992;2022-12-18T07:45:55;-7.10;99.90
61201;DHT22;47065;52.898;6.992;2022-12-18T07:48:21;-7.00;99.90
61201;DHT22;47065;52.898;6.992;2022-12-18T07:50:47;-7.00;99.90
61201;DHT22;47065;52.898;6.992;2022-12-18T07:53:12;-6.90;99.90
61201;DHT22;47065;52.898;6.992;2022-12-18T07:55:40;-6.90;99.90
61201;DHT22;47065;52.898;6.992;2022-12-18T07:58:07;-6.80;99.90
61201;DHT22;47065;52.898;6.992;2022-12-18T08:00:33;-6.70;99.90
61201;DHT22;47065;52.898;6.992;2022-12-18T08:02:58;-6.70;99.90
61201;DHT22;47065;52.898;6.992;2022-12-18T08:05:24;-6.60;99.90
61201;DHT22;47065;52.898;6.992;2022-12-18T08:07:50;-6.50;99.90
61201;DHT22;47065;52.898;6.992;2022-12-18T08:10:16;-6.50;99.90
61201;DHT22;47065;52.898;6.992;2022-12-18T08:12:42;-6.40;99.90
61201;DHT22;47065;52.898;6.992;2022-12-18T08:15:07;-6.40;99.90
61201;DHT22;47065;52.898;6.992;2022-12-18T08:17:33;-6.40;99.90
61201;DHT22;47065;52.898;6.992;2022-12-18T08:19:59;-6.30;99.90
61201;DHT22;47065;52.898;6.992;2022-12-18T08:22:25;-6.20;99.90
61201;DHT22;47065;52.898;6.992;2022-12-18T08:24:50;-6.10;99.90
61201;DHT22;47065;52.898;6.992;2022-12-18T08:27:16;-6.00;99.90
61201;DHT22;47065;52.898;6.992;2022-12-18T08:29:42;-5.90;99.90
61201;DHT22;47065;52.898;6.992;2022-12-18T08:32:07;-5.90;99.90
61201;DHT22;47065;52.898;6.992;2022-12-18T08:34:33;-5.80;99.90
61201;DHT22;47065;52.898;6.992;2022-12-18T08:36:59;-5.70;99.90
61201;DHT22;47065;52.898;6.992;2022-12-18T08:39:25;-5.60;99.90
61201;DHT22;47065;52.898;6.992;2022-12-18T08:41:50;-5.60;99.90
61201;DHT22;47065;52.898;6.992;2022-12-18T08:44:34;-5.50;99.90
61201;DHT22;47065;52.898;6.992;2022-12-18T08:47:03;-5.50;99.90
61201;DHT22;47065;52.898;6.992;2022-12-18T08:49:29;-5.40;99.90
61201;DHT22;47065;52.898;6.992;2022-12-18T08:51:56;-5.30;99.90
61201;DHT22;47065;52.898;6.992;2022-12-18T08:54:23;-5.20;99.90
61201;DHT22;47065;52.898;6.992;2022-12-18T08:56:48;-5.20;99.90
61201;DHT22;47065;52.898;6.992;2022-12-18T08:59:18;-5.30;99.90
61201;DHT22;47065;52.898;6.992;2022-12-18T09:01:45;-5.50;99.90
61201;DHT22;47065;52.898;6.992;2022-12-18T09:04:11;-5.50;99.90
61201;DHT22;47065;52.898;6.992;2022-12-18T09:06:37;-5.50;99.90
61201;DHT22;47065;52.898;6.992;2022-12-18T09:09:04;-5.50;99.90
61201;DHT22;47065;52.898;6.992;2022-12-18T09:11:30;-5.50;99.90
61201;DHT22;47065;52.898;6.992;2022-12-18T09:13:57;-5.40;99.90
61201;DHT22;47065;52.898;6.992;2022-12-18T09:16:23;-5.40;99.90
61201;DHT22;47065;52.898;6.992;2022-12-18T09:18:49;-5.30;99.90
61201;DHT22;47065;52.898;6.992;2022-12-18T09:21:18;-5.20;99.90
61201;DHT22;47065;52.898;6.992;2022-12-18T09:23:50;-5.10;99.90
61201;DHT22;47065;52.898;6.992;2022-12-18T09:26:16;-5.00;99.90
61201;DHT22;47065;52.898;6.992;2022-12-18T09:28:42;-4.80;99.90
61201;DHT22;47065;52.898;6.992;2022-12-18T09:31:08;-4.70;99.90
61201;DHT22;47065;52.898;6.992;2022-12-18T09:33:35;-4.50;99.90
61201;DHT22;47065;52.898;6.992;2022-12-18T09:36:03;-4.30;99.90
61201;DHT22;47065;52.898;6.992;2022-12-18T09:38:29;-4.20;99.90
61201;DHT22;47065;52.898;6.992;2022-12-18T09:41:03;-4.10;99.90
61201;DHT22;47065;52.898;6.992;2022-12-18T09:43:33;-3.90;99.90
61201;DHT22;47065;52.898;6.992;2022-12-18T09:46:05;-3.80;99.90
61201;DHT22;47065;52.898;6.992;2022-12-18T09:48:35;-3.60;99.90
61201;DHT22;47065;52.898;6.992;2022-12-18T09:51:05;-3.40;99.90
61201;DHT22;47065;52.898;6.992;2022-12-18T09:53:37;-3.30;99.90
61201;DHT22;47065;52.898;6.992;2022-12-18T09:56:05;-3.20;99.90
61201;DHT22;47065;52.898;6.992;2022-12-18T09:58:44;-3.10;99.90
61201;DHT22;47065;52.898;6.992;2022-12-18T10:01:18;-3.00;99.90
61201;DHT22;47065;52.898;6.992;2022-12-18T10:03:46;-2.90;99.90
61201;DHT22;47065;52.898;6.992;2022-12-18T10:09:47;-2.70;99.90
61201;DHT22;47065;52.898;6.992;2022-12-18T10:12:42;-2.70;99.90
61201;DHT22;47065;52.898;6.992;2022-12-18T10:15:20;-2.50;99.90
61201;DHT22;47065;52.898;6.992;2022-12-18T10:20:47;-2.20;99.90
61201;DHT22;47065;52.898;6.992;2022-12-18T10:26:06;-1.90;99.90
61201;DHT22;47065;52.898;6.992;2022-12-18T10:28:35;-1.80;99.90
61201;DHT22;47065;52.898;6.992;2022-12-18T10:31:01;-1.70;99.90
61201;DHT22;47065;52.898;6.992;2022-12-18T10:33:31;-1.70;99.90
61201;DHT22;47065;52.898;6.992;2022-12-18T10:35:58;-1.70;99.90
61201;DHT22;47065;52.898;6.992;2022-12-18T10:38:31;-1.70;99.90
61201;DHT22;47065;52.898;6.992;2022-12-18T10:41:05;-1.70;99.90
61201;DHT22;47065;52.898;6.992;2022-12-18T10:43:39;-1.70;99.90
61201;DHT22;47065;52.898;6.992;2022-12-18T10:48:54;-1.70;99.90
61201;DHT22;47065;52.898;6.992;2022-12-18T10:51:30;-1.70;99.90
61201;DHT22;47065;52.898;6.992;2022-12-18T10:54:13;-1.60;99.90
61201;DHT22;47065;52.898;6.992;2022-12-18T10:56:39;-1.60;99.90
61201;DHT22;47065;52.898;6.992;2022-12-18T10:59:11;-1.60;99.90
61201;DHT22;47065;52.898;6.992;2022-12-18T11:02:07;-1.60;99.90
61201;DHT22;47065;52.898;6.992;2022-12-18T11:04:51;-1.50;99.90
61201;DHT22;47065;52.898;6.992;2022-12-18T11:07:17;-1.50;99.90
61201;DHT22;47065;52.898;6.992;2022-12-18T11:09:42;-1.50;99.90
61201;DHT22;47065;52.898;6.992;2022-12-18T11:12:19;-1.60;99.90
61201;DHT22;47065;52.898;6.992;2022-12-18T11:14:54;-1.70;99.90
61201;DHT22;47065;52.898;6.992;2022-12-18T11:17:32;-1.70;99.90
61201;DHT22;47065;52.898;6.992;2022-12-18T11:20:01;-1.70;99.90
61201;DHT22;47065;52.898;6.992;2022-12-18T11:22:33;-1.70;99.90
61201;DHT22;47065;52.898;6.992;2022-12-18T11:25:04;-1.70;99.90
61201;DHT22;47065;52.898;6.992;2022-12-18T11:27:31;-1.70;99.90
61201;DHT22;47065;52.898;6.992;2022-12-18T11:32:49;-1.70;99.90
61201;DHT22;47065;52.898;6.992;2022-12-18T11:37:56;-1.70;99.90
61201;DHT22;47065;52.898;6.992;2022-12-18T11:40:32;-1.70;99.90
61201;DHT22;47065;52.898;6.992;2022-12-18T11:45:52;-1.60;99.90
61201;DHT22;47065;52.898;6.992;2022-12-18T11:48:27;-1.50;99.90
61201;DHT22;47065;52.898;6.992;2022-12-18T11:50:58;-1.50;99.90
61201;DHT22;47065;52.898;6.992;2022-12-18T11:53:26;-1.40;99.90
61201;DHT22;47065;52.898;6.992;2022-12-18T11:58:49;-1.40;99.90
61201;DHT22;47065;52.898;6.992;2022-12-18T12:04:02;-1.40;99.90
61201;DHT22;47065;52.898;6.992;2022-12-18T12:09:31;-1.40;99.90
61201;DHT22;47065;52.898;6.992;2022-12-18T12:12:26;-1.40;99.90
61201;DHT22;47065;52.898;6.992;2022-12-18T12:15:25;-1.40;99.90
61201;DHT22;47065;52.898;6.992;2022-12-18T12:21:19;-1.30;99.90
61201;DHT22;47065;52.898;6.992;2022-12-18T12:39:13;-1.00;99.90
61201;DHT22;47065;52.898;6.992;2022-12-18T12:41:41;-0.90;99.90
61201;DHT22;47065;52.898;6.992;2022-12-18T12:44:33;-0.90;99.90
61201;DHT22;47065;52.898;6.992;2022-12-18T12:47:04;-0.80;99.90
61201;DHT22;47065;52.898;6.992;2022-12-18T12:49:33;-0.80;99.90
61201;DHT22;47065;52.898;6.992;2022-12-18T12:54:31;-0.70;99.90
61201;DHT22;47065;52.898;6.992;2022-12-18T12:57:17;-0.70;99.90
61201;DHT22;47065;52.898;6.992;2022-12-18T13:02:44;-0.70;99.90
61201;DHT22;47065;52.898;6.992;2022-12-18T13:07:55;-0.70;99.90
61201;DHT22;47065;52.898;6.992;2022-12-18T13:10:26;-0.90;99.90
61201;DHT22;47065;52.898;6.992;2022-12-18T13:20:49;-1.10;99.90
61201;DHT22;47065;52.898;6.992;2022-12-18T13:25:50;-1.20;99.90
61201;DHT22;47065;52.898;6.992;2022-12-18T13:28:21;-1.20;99.90
61201;DHT22;47065;52.898;6.992;2022-12-18T13:30:49;-1.20;99.90
61201;DHT22;47065;52.898;6.992;2022-12-18T13:43:27;-1.30;99.90
61201;DHT22;47065;52.898;6.992;2022-12-18T13:49:02;-1.30;99.90
61201;DHT22;47065;52.898;6.992;2022-12-18T13:51:31;-1.40;99.90
61201;DHT22;47065;52.898;6.992;2022-12-18T13:54:00;-1.40;99.90
61201;DHT22;47065;52.898;6.992;2022-12-18T13:56:30;-1.40;99.90
61201;DHT22;47065;52.898;6.992;2022-12-18T13:59:15;-1.40;99.90
61201;DHT22;47065;52.898;6.992;2022-12-18T14:01:53;-1.40;99.90
61201;DHT22;47065;52.898;6.992;2022-12-18T14:06:50;-1.50;99.90
61201;DHT22;47065;52.898;6.992;2022-12-18T14:09:29;-1.50;99.90
61201;DHT22;47065;52.898;6.992;2022-12-18T14:11:56;-1.50;99.90
61201;DHT22;47065;52.898;6.992;2022-12-18T14:14:45;-1.60;99.90
61201;DHT22;47065;52.898;6.992;2022-12-18T14:17:13;-1.50;99.90
61201;DHT22;47065;52.898;6.992;2022-12-18T14:19:47;-1.60;99.90
61201;DHT22;47065;52.898;6.992;2022-12-18T14:22:17;-1.50;99.90
61201;DHT22;47065;52.898;6.992;2022-12-18T14:24:44;-1.50;99.90
61201;DHT22;47065;52.898;6.992;2022-12-18T14:27:24;-1.50;99.90
61201;DHT22;47065;52.898;6.992;2022-12-18T14:29:51;-1.50;99.90
61201;DHT22;47065;52.898;6.992;2022-12-18T14:32:18;-1.50;99.90
61201;DHT22;47065;52.898;6.992;2022-12-18T14:37:11;-1.50;99.90
61201;DHT22;47065;52.898;6.992;2022-12-18T14:39:38;-1.50;99.90
61201;DHT22;47065;52.898;6.992;2022-12-18T14:42:03;-1.50;99.90
61201;DHT22;47065;52.898;6.992;2022-12-18T14:44:29;-1.50;99.90
61201;DHT22;47065;52.898;6.992;2022-12-18T14:46:55;-1.50;99.90
61201;DHT22;47065;52.898;6.992;2022-12-18T14:49:32;-1.50;99.90
61201;DHT22;47065;52.898;6.992;2022-12-18T14:52:04;-1.50;99.90
61201;DHT22;47065;52.898;6.992;2022-12-18T14:54:31;-1.50;99.90
61201;DHT22;47065;52.898;6.992;2022-12-18T14:57:21;-1.50;99.90
61201;DHT22;47065;52.898;6.992;2022-12-18T14:59:47;-1.50;99.90
61201;DHT22;47065;52.898;6.992;2022-12-18T15:02:26;-1.50;99.90
61201;DHT22;47065;52.898;6.992;2022-12-18T15:05:03;-1.50;99.90
61201;DHT22;47065;52.898;6.992;2022-12-18T15:07:44;-1.60;99.90
61201;DHT22;47065;52.898;6.992;2022-12-18T15:10:22;-1.60;99.90
61201;DHT22;47065;52.898;6.992;2022-12-18T15:13:15;-1.70;99.90
61201;DHT22;47065;52.898;6.992;2022-12-18T15:15:45;-1.80;99.90
61201;DHT22;47065;52.898;6.992;2022-12-18T15:18:14;-1.80;99.90
61201;DHT22;47065;52.898;6.992;2022-12-18T15:25:58;-2.00;99.90
61201;DHT22;47065;52.898;6.992;2022-12-18T15:28:50;-2.00;99.90
61201;DHT22;47065;52.898;6.992;2022-12-18T15:34:29;-2.10;99.90
61201;DHT22;47065;52.898;6.992;2022-12-18T15:36:30;-2.10;99.90
61201;DHT22;47065;52.898;6.992;2022-12-18T15:38:56;-2.10;99.90
61201;DHT22;47065;52.898;6.992;2022-12-18T15:41:23;-2.10;99.90
61201;DHT22;47065;52.898;6.992;2022-12-18T15:43:50;-2.10;99.90
61201;DHT22;47065;52.898;6.992;2022-12-18T15:46:20;-2.10;99.90
61201;DHT22;47065;52.898;6.992;2022-12-18T15:48:48;-2.10;99.90
61201;DHT22;47065;52.898;6.992;2022-12-18T15:51:23;-2.10;99.90
61201;DHT22;47065;52.898;6.992;2022-12-18T15:53:53;-2.10;99.90
61201;DHT22;47065;52.898;6.992;2022-12-18T15:56:20;-2.10;99.90
61201;DHT22;47065;52.898;6.992;2022-12-18T15:59:13;-2.10;99.90
61201;DHT22;47065;52.898;6.992;2022-12-18T16:01:40;-2.10;99.90
61201;DHT22;47065;52.898;6.992;2022-12-18T16:04:06;-2.10;99.90
61201;DHT22;47065;52.898;6.992;2022-12-18T16:06:32;-2.20;99.90
61201;DHT22;47065;52.898;6.992;2022-12-18T16:08:57;-2.10;99.90
61201;DHT22;47065;52.898;6.992;2022-12-18T16:11:26;-2.10;99.90
61201;DHT22;47065;52.898;6.992;2022-12-18T16:16:32;-2.00;99.90
61201;DHT22;47065;52.898;6.992;2022-12-18T16:18:57;-2.00;99.90
61201;DHT22;47065;52.898;6.992;2022-12-18T16:21:23;-2.00;99.90
61201;DHT22;47065;52.898;6.992;2022-12-18T16:23:49;-1.90;99.90
61201;DHT22;47065;52.898;6.992;2022-12-18T16:26:14;-1.80;99.90
61201;DHT22;47065;52.898;6.992;2022-12-18T16:28:40;-1.80;99.90
61201;DHT22;47065;52.898;6.992;2022-12-18T16:31:05;-1.80;99.90
61201;DHT22;47065;52.898;6.992;2022-12-18T16:33:31;-1.80;99.90
61201;DHT22;47065;52.898;6.992;2022-12-18T16:35:56;-1.80;99.90
61201;DHT22;47065;52.898;6.992;2022-12-18T16:38:22;-1.70;99.90
61201;DHT22;47065;52.898;6.992;2022-12-18T16:40:48;-1.70;99.90
61201;DHT22;47065;52.898;6.992;2022-12-18T16:43:32;-1.70;99.90
61201;DHT22;47065;52.898;6.992;2022-12-18T16:45:58;-1.70;99.90
61201;DHT22;47065;52.898;6.992;2022-12-18T16:48:24;-1.70;99.90
61201;DHT22;47065;52.898;6.992;2022-12-18T16:50:50;-1.60;99.90
61201;DHT22;47065;52.898;6.992;2022-12-18T16:53:24;-1.60;99.90
61201;DHT22;47065;52.898;6.992;2022-12-18T16:55:54;-1.60;99.90
61201;DHT22;47065;52.898;6.992;2022-12-18T16:58:20;-1.60;99.90
61201;DHT22;47065;52.898;6.992;2022-12-18T17:00:46;-1.60;99.90
61201;DHT22;47065;52.898;6.992;2022-12-18T17:03:11;-1.50;99.90
61201;DHT22;47065;52.898;6.992;2022-12-18T17:05:37;-1.50;99.90
61201;DHT22;47065;52.898;6.992;2022-12-18T17:08:02;-1.50;99.90
61201;DHT22;47065;52.898;6.992;2022-12-18T17:10:28;-1.50;99.90
61201;DHT22;47065;52.898;6.992;2022-12-18T17:12:54;-1.40;99.90
61201;DHT22;47065;52.898;6.992;2022-12-18T17:15:19;-1.40;99.90
61201;DHT22;47065;52.898;6.992;2022-12-18T17:17:45;-1.40;99.90
61201;DHT22;47065;52.898;6.992;2022-12-18T17:20:10;-1.30;99.90
61201;DHT22;47065;52.898;6.992;2022-12-18T17:22:36;-1.30;99.90
61201;DHT22;47065;52.898;6.992;2022-12-18T17:25:02;-1.30;99.90
61201;DHT22;47065;52.898;6.992;2022-12-18T17:27:28;-1.20;99.90
61201;DHT22;47065;52.898;6.992;2022-12-18T17:29:54;-1.20;99.90
61201;DHT22;47065;52.898;6.992;2022-12-18T17:32:19;-1.20;99.90
61201;DHT22;47065;52.898;6.992;2022-12-18T17:34:45;-1.20;99.90
61201;DHT22;47065;52.898;6.992;2022-12-18T17:37:11;-1.10;99.90
61201;DHT22;47065;52.898;6.992;2022-12-18T17:39:37;-1.10;99.90
61201;DHT22;47065;52.898;6.992;2022-12-18T17:42:03;-1.10;99.90
61201;DHT22;47065;52.898;6.992;2022-12-18T17:44:29;-1.10;99.90